Latest Weather Observations for Blackwater Airport

IDQ60801

Issued at 1:32 pm EST Saturday 29 April 2017 (issued every 30 minutes, with the page automatically refreshed every 10 minutes)

About weather observations | Map of weather stations | Latest weather observations for QLD | Other Formats
Station Details ID: 035134 Name: BLACKWATER AIRPORT Lat: -23.60 Lon: 148.81 Height: 192.95 m
Data from the previous 72 hours. | See also: Recent months at Blackwater Airport
Date/Time
EST
Temp
°C
App
Temp
°C
Dew
Point
°C
Rel
Hum
%
Delta-T
°C
Wind Press
QNH
hPa
Press
MSL
hPa
Rain since
9am
mm
Dir  Spd
km/h
Gust
km/h
Spd
kts
Gust
kts
29/01:30pm 25.5 22.2 9.7 37 8.8 ESE 17 22 9 12 1017.2 1016.3 0.0
29/01:00pm 25.2 23.1 9.9 38 8.5 S 11 15 6 8 1017.7 1016.8 0.0
29/12:30pm 25.0 23.3 9.7 38 8.5 NE 9 17 5 9 1018.3 1017.4 0.0
29/12:00pm 25.4 24.0 10.8 40 8.2 E 9 32 5 17 1018.7 1017.9 0.0
29/11:30am 23.7 21.9 9.3 40 7.9 SSE 9 15 5 8 1019.3 1018.5 0.0
29/11:00am 23.2 21.7 9.2 41 7.6 E 7 17 4 9 1019.8 1018.9 0.0
29/10:30am 22.9 20.9 10.0 44 7.1 E 11 24 6 13 1020.1 1019.2 0.0
29/10:00am 22.1 19.7 9.9 46 6.7 SSE 13 20 7 11 1020.2 1019.3 0.0
29/09:30am 21.4 18.4 9.3 46 6.5 SSE 15 26 8 14 1020.2 1019.3 0.0
29/09:00am 20.0 15.7 8.0 46 6.2 SSE 20 26 11 14 1019.9 1019.0 0.0
29/08:30am 18.6 13.8 7.4 48 5.7 SSE 22 28 12 15 1019.9 1019.0 0.0
29/08:00am 17.3 12.3 6.5 49 5.4 SSE 22 28 12 15 1019.6 1018.7 0.0
29/07:30am 15.7 11.6 6.4 54 4.6 S 17 20 9 11 1019.2 1018.4 0.0
29/07:00am 14.3 10.2 6.2 58 3.9 S 17 24 9 13 1019.0 1018.2 0.0
29/06:30am 14.4 9.8 6.3 58 3.9 SSE 20 26 11 14 1018.5 1017.6 0.0
29/06:00am 11.4 6.7 5.1 65 2.9 S 19 20 10 11 1018.3 1017.4 0.0
29/05:30am 11.5 7.1 4.7 63 3.1 SSW 17 20 9 11 1018.0 1017.1 0.0
29/05:00am 11.9 8.2 4.4 60 3.4 SSW 13 19 7 10 1017.9 1017.0 0.0
29/04:30am 11.5 6.9 3.8 59 3.5 SSW 17 19 9 10 1017.8 1016.9 0.0
29/04:00am 10.7 5.6 3.0 59 3.4 S 19 22 10 12 1017.8 1016.9 0.0
29/03:30am 10.6 5.4 2.4 57 3.5 SSW 19 20 10 11 1017.9 1017.0 0.0
29/03:00am 10.3 5.5 2.4 58 3.4 SSW 17 19 9 10 1017.9 1017.0 0.0
29/02:30am 10.3 5.1 2.2 57 3.5 S 19 20 10 11 1017.9 1017.0 0.0
29/02:00am 10.4 4.9 2.0 56 3.6 S 20 20 11 11 1018.3 1017.4 0.0
29/01:30am 13.5 8.8 3.0 49 4.7 S 17 20 9 11 1018.5 1017.6 0.0
29/01:00am 10.1 5.2 2.2 58 3.4 SSW 17 20 9 11 1018.8 1018.0 0.0
29/12:30am 10.1 4.8 2.0 57 3.5 S 19 20 10 11 1018.8 1018.0 0.0
29/12:00am 10.2 4.9 1.8 56 3.6 S 19 20 10 11 1019.2 1018.4 0.0
 
Date/Time
EST
Temp
°C
App
Temp
°C
Dew
Point
°C
Rel
Hum
%
Delta-T
°C
Wind Press
QNH
hPa
Press
MSL
hPa
Rain since
9am
mm
Dir  Spd
km/h
Gust
km/h
Spd
kts
Gust
kts
28/11:30pm 10.8 5.8 1.4 52 4.0 S 17 19 9 10 1019.2 1018.4 0.0
28/11:00pm 14.6 9.6 1.5 41 5.7 S 17 20 9 11 1019.3 1018.5 0.0
28/10:30pm 14.3 9.3 1.6 42 5.6 SSE 17 20 9 11 1019.2 1018.4 0.0
28/10:00pm 14.3 8.9 1.2 41 5.7 SSE 19 22 10 12 1019.2 1018.4 0.0
28/09:30pm 14.1 9.5 1.4 42 5.5 SSE 15 19 8 10 1019.4 1018.6 0.0
28/09:00pm 14.3 9.2 0.6 39 5.9 SSE 17 19 9 10 1019.3 1018.5 0.0
28/08:30pm 16.3 10.5 0.0 33 7.0 SSE 20 30 11 16 1018.9 1018.1 0.0
28/08:00pm 14.8 9.4 1.3 40 5.9 S 19 24 10 13 1018.7 1017.9 0.0
28/07:30pm 13.5 8.5 1.2 43 5.3 S 17 19 9 10 1018.2 1017.3 0.0
28/07:00pm 15.1 10.4 0.9 38 6.2 S 15 17 8 9 1018.0 1017.1 0.0
28/06:30pm 14.3 9.2 0.6 39 5.9 S 17 19 9 10 1017.6 1016.7 0.0
28/06:00pm 16.9 12.1 0.1 32 7.3 S 15 19 8 10 1017.2 1016.3 0.0
28/05:30pm 18.9 13.1 0.0 28 8.4 S 20 30 11 16 1016.9 1016.0 0.0
28/05:00pm 20.2 13.6 -0.4 25 9.1 S 24 33 13 18 1016.7 1015.8 0.0
28/04:30pm 20.8 13.4 -0.5 24 9.5 SSW 28 37 15 20 1016.3 1015.4 0.0
28/04:12pm 21.2 13.9 -0.1 24 9.6 S 28 46 15 25 1016.0 1015.1 0.0
28/04:00pm 21.5 14.2 0.1 24 9.7 SSW 28 35 15 19 1016.0 1015.1 0.0
28/03:30pm 21.4 14.4 -0.6 23 9.8 S 26 35 14 19 1016.0 1015.1 0.0
28/03:00pm 21.7 14.7 -0.3 23 9.9 S 26 41 14 22 1015.9 1015.0 0.0
28/02:30pm 21.9 15.5 1.0 25 9.7 S 24 35 13 19 1015.9 1015.0 0.0
28/02:00pm 20.7 13.3 -0.6 24 9.4 SSE 28 39 15 21 1016.1 1015.2 0.0
28/01:30pm 20.6 13.7 -0.1 25 9.3 S 26 41 14 22 1016.4 1015.5 0.0
28/01:00pm 20.2 12.9 0.1 26 9.0 SSW 28 37 15 20 1017.0 1016.1 0.0
28/12:30pm 19.6 12.8 0.6 28 8.6 S 26 35 14 19 1017.5 1016.6 0.0
28/12:00pm 19.9 13.9 0.9 28 8.6 SSW 22 35 12 19 1018.0 1017.1 0.0
28/11:30am 19.0 13.1 1.5 31 8.0 S 22 30 12 16 1018.8 1018.0 0.0
28/11:00am 17.9 11.5 1.0 32 7.5 SSE 24 35 13 19 1019.3 1018.5 0.0
28/10:30am 17.0 9.8 0.6 33 7.2 S 28 39 15 21 1019.9 1019.0 0.0
28/10:00am 16.7 9.5 0.8 34 7.0 S 28 41 15 22 1020.2 1019.3 0.0
28/09:30am 16.0 8.5 1.0 36 6.6 S 30 41 16 22 1020.5 1019.6 0.0
28/09:00am 14.9 7.3 0.7 38 6.1 SSE 30 43 16 23 1020.5 1019.6 0.0
28/08:30am 14.4 8.0 1.0 40 5.8 SSE 24 35 13 19 1020.4 1019.5 0.0
28/08:00am 13.2 8.5 0.9 43 5.2 S 15 20 8 11 1020.1 1019.2 0.0
28/07:30am 12.0 7.4 1.3 48 4.6 S 15 20 8 11 1019.8 1018.9 0.0
28/07:00am 9.1 6.0 1.5 59 3.2 WSW 7 9 4 5 1019.3 1018.5 0.0
28/06:30am 7.3 4.1 1.0 64 2.5 SSW 7 9 4 5 1019.0 1018.2 0.0
28/06:00am 7.0 2.3 1.1 66 2.4 SSW 15 15 8 8 1018.7 1017.9 0.0
28/05:30am 6.9 3.8 1.4 68 2.2 SW 7 7 4 4 1018.4 1017.5 0.0
28/05:00am 7.1 3.9 1.0 65 2.5 SW 7 9 4 5 1018.1 1017.2 0.0
28/04:30am 8.0 4.8 1.0 61 2.9 SW 7 11 4 6 1017.9 1017.0 0.0
28/04:00am 9.2 5.6 0.6 55 3.5 SSW 9 11 5 6 1017.8 1016.9 0.0
28/03:30am 11.3 6.9 0.4 47 4.5 S 13 19 7 10 1017.7 1016.8 0.0
28/03:00am 11.8 7.4 0.3 45 4.8 S 13 19 7 10 1017.7 1016.8 0.0
28/02:30am 12.7 7.9 0.5 43 5.2 S 15 20 8 11 1018.1 1017.2 0.0
28/02:00am 13.8 7.3 0.1 39 5.8 S 24 32 13 17 1018.4 1017.5 0.0
28/01:30am 14.2 7.7 0.1 38 6.0 S 24 35 13 19 1018.6 1017.7 0.0
28/01:00am 13.9 7.5 0.9 41 5.6 S 24 39 13 21 1018.7 1017.9 0.0
28/12:30am 15.1 8.3 0.9 38 6.2 S 26 39 14 21 1018.5 1017.6 0.0
28/12:00am 15.7 9.1 1.8 39 6.2 S 26 41 14 22 1018.2 1017.3 0.0
 
Date/Time
EST
Temp
°C
App
Temp
°C
Dew
Point
°C
Rel
Hum
%
Delta-T
°C
Wind Press
QNH
hPa
Press
MSL
hPa
Rain since
9am
mm
Dir  Spd
km/h
Gust
km/h
Spd
kts
Gust
kts
27/11:30pm 15.7 10.3 2.2 40 6.1 S 20 28 11 15 1018.2 1017.3 0.0
27/11:00pm 15.9 10.5 2.3 40 6.1 S 20 28 11 15 1017.9 1017.0 0.0
27/10:30pm 16.5 11.1 2.5 39 6.4 SSE 20 28 11 15 1017.8 1016.9 0.0
27/10:00pm 16.7 11.9 2.7 39 6.4 SSE 17 24 9 13 1017.7 1016.8 0.0
27/09:30pm 17.1 12.3 2.7 38 6.6 SSE 17 26 9 14 1017.7 1016.8 0.0
27/09:00pm 17.4 12.7 3.0 38 6.7 SSE 17 20 9 11 1017.4 1016.5 0.0
27/08:30pm 17.7 12.6 2.8 37 6.9 S 19 26 10 14 1017.3 1016.4 0.0
27/08:00pm 18.6 13.3 2.9 35 7.3 S 20 28 11 15 1016.9 1016.0 0.0
27/07:30pm 18.6 14.0 3.6 37 7.1 SSE 17 28 9 15 1016.7 1015.8 0.0
27/07:00pm 18.6 14.3 5.1 41 6.6 SSE 17 22 9 12 1016.2 1015.3 0.0
27/06:30pm 19.1 15.3 5.6 41 6.7 SSE 15 20 8 11 1015.6 1014.7 0.0
27/06:00pm 18.7 15.4 6.2 44 6.2 SSE 13 17 7 9 1015.4 1014.5 0.0
27/05:30pm 20.5 17.1 5.7 38 7.4 S 13 17 7 9 1015.0 1014.1 0.0
27/05:00pm 22.1 18.4 6.3 36 8.1 SSW 15 20 8 11 1014.7 1013.8 0.0
27/04:30pm 22.5 18.0 5.9 34 8.5 S 19 26 10 14 1014.4 1013.5 0.0
27/04:00pm 22.8 17.7 6.1 34 8.6 SSW 22 30 12 16 1014.4 1013.5 0.0
27/03:30pm 23.6 18.3 6.8 34 8.8 SSW 24 33 13 18 1014.5 1013.6 0.0
27/03:00pm 23.4 18.8 6.7 34 8.7 S 20 30 11 16 1014.5 1013.6 0.0
27/02:30pm 23.4 18.5 6.7 34 8.7 SSW 22 32 12 17 1014.5 1013.6 0.0
27/02:00pm 22.8 17.9 7.0 36 8.2 SSW 22 33 12 18 1014.5 1013.6 0.0
27/01:30pm 22.8 18.5 7.8 38 7.9 S 20 30 11 16 1014.7 1013.8 0.0
27/01:00pm 22.4 17.5 7.0 37 8.0 S 22 32 12 17 1015.1 1014.2 0.0
27/12:30pm 22.5 17.9 8.2 40 7.6 SSE 22 32 12 17 1015.5 1014.6 0.0
27/12:00pm 22.1 17.5 8.2 41 7.4 S 22 30 12 16 1015.8 1014.9 0.0
27/11:30am 21.2 16.4 7.4 41 7.2 S 22 32 12 17 1016.2 1015.3 0.0
27/11:00am 21.7 16.3 7.9 41 7.3 S 26 37 14 20 1016.6 1015.7 0.0
27/10:30am 21.2 15.8 7.8 42 7.0 SSW 26 39 14 21 1016.9 1016.0 0.0
27/10:00am 20.4 15.6 7.4 43 6.7 S 22 35 12 19 1017.2 1016.3 0.0
27/09:30am 19.8 13.5 7.2 44 6.5 SSE 30 39 16 21 1017.3 1016.4 0.0
27/09:00am 19.3 13.0 7.4 46 6.1 SSE 30 41 16 22 1017.2 1016.3 0.0
27/08:30am 18.6 12.0 7.7 49 5.6 SSE 32 43 17 23 1016.7 1015.8 0.0
27/08:00am 18.5 14.1 9.0 54 5.0 S 22 32 12 17 1016.2 1015.3 0.0
27/07:30am 18.1 13.5 9.5 57 4.6 S 24 32 13 17 1015.7 1014.8 0.0
27/07:00am 17.8 13.1 9.4 58 4.4 S 24 32 13 17 1015.0 1014.1 0.0
27/06:30am 16.5 13.3 9.9 65 3.5 SSW 17 20 9 11 1014.7 1013.8 0.0
27/06:00am 16.9 14.6 10.3 65 3.5 SSW 13 17 7 9 1014.5 1013.6 0.0
27/05:30am 18.6 16.0 10.7 60 4.3 S 15 19 8 10 1014.2 1013.3 0.0
27/05:00am 19.7 16.7 10.7 56 4.9 S 17 28 9 15 1013.9 1013.0 0.0
27/04:30am 20.1 17.7 11.3 57 4.9 SSE 15 22 8 12 1013.8 1012.9 0.0
27/04:00am 20.5 17.7 11.4 56 5.1 SSE 17 24 9 13 1013.6 1012.7 0.0
27/03:30am 20.6 17.8 11.5 56 5.1 SSE 17 24 9 13 1013.5 1012.6 0.0
27/03:00am 21.1 17.7 11.2 53 5.5 S 20 28 11 15 1013.3 1012.4 0.0
27/02:30am 21.7 18.5 12.0 54 5.5 S 20 32 11 17 1013.3 1012.4 0.0
27/02:00am 22.0 19.2 13.1 57 5.1 S 20 28 11 15 1013.5 1012.6 0.0
27/01:30am 22.1 22.0 16.1 69 3.7 SSE 11 17 6 9 1013.6 1012.7 0.0
27/01:00am 23.5 22.6 15.8 62 4.7 S 15 20 8 11 1013.7 1012.8 0.0
27/12:30am 24.1 22.8 15.9 60 5.0 S 17 24 9 13 1013.6 1012.7 0.0
27/12:00am 23.6 23.0 15.6 61 4.9 SSE 13 17 7 9 1013.4 1012.5 0.0
 
Date/Time
EST
Temp
°C
App
Temp
°C
Dew
Point
°C
Rel
Hum
%
Delta-T
°C
Wind Press
QNH
hPa
Press
MSL
hPa
Rain since
9am
mm
Dir  Spd
km/h
Gust
km/h
Spd
kts
Gust
kts
26/11:30pm 24.3 22.9 15.5 58 5.3 SSE 17 22 9 12 1013.4 1012.5 0.0
26/11:00pm 24.8 23.0 15.4 56 5.7 SSE 19 24 10 13 1013.2 1012.3 0.0
26/10:30pm 25.2 23.2 15.5 55 5.9 SSE 20 28 11 15 1013.2 1012.3 0.0
26/10:00pm 24.7 23.1 15.9 58 5.4 SSW 19 28 10 15 1013.0 1012.1 0.0
26/09:30pm 23.4 24.8 14.4 57 5.4 CALM 0 0 0 0 1012.3 1011.4 0.0
26/09:00pm 24.4 24.2 14.8 55 5.8 SSW 9 11 5 6 1012.4 1011.5 0.0
26/08:30pm 24.3 24.9 15.2 57 5.5 N 6 20 3 11 1012.2 1011.3 0.0
26/08:00pm 23.1 22.9 14.7 59 5.0 N 9 13 5 7 1011.8 1010.9 0.0
26/07:30pm 24.3 24.4 14.4 54 5.9 S 7 9 4 5 1011.5 1010.6 0.0
26/07:00pm 25.0 24.7 14.5 52 6.3 SSW 9 11 5 6 1011.0 1010.1 0.0
26/06:30pm 25.5 25.2 14.3 50 6.7 WSW 9 9 5 5 1010.8 1009.9 0.0
26/06:00pm 26.4 25.9 13.9 46 7.5 SW 9 11 5 6 1010.5 1009.6 0.0
26/05:30pm 28.5 28.1 14.0 41 8.7 WSW 9 13 5 7 1010.4 1009.5 0.0
26/05:00pm 30.3 28.0 13.1 34 10.3 WSW 17 20 9 11 1010.2 1009.3 0.0
26/04:30pm 31.0 28.6 12.8 32 10.9 W 17 22 9 12 1010.2 1009.3 0.0
26/04:00pm 31.4 28.4 12.7 32 11.2 W 20 26 11 14 1010.3 1009.4 0.0
26/03:30pm 31.5 29.7 13.3 33 11.0 WNW 15 24 8 13 1010.3 1009.4 0.0
26/03:00pm 31.5 29.4 13.7 33 10.8 NW 17 24 9 13 1010.4 1009.5 0.0
26/02:30pm 31.0 29.4 12.8 32 10.9 NW 13 24 7 13 1010.8 1009.9 0.0
26/02:00pm 30.5 28.9 12.9 34 10.5 WNW 13 19 7 10 1011.3 1010.4 0.0

Other Formats:

Comma delimited format used in spreadsheet applications
http://www.bom.gov.au/fwo/IDQ60801/IDQ60801.94398.axf

JavaScript Object Notation format (JSON) in row-major order
http://www.bom.gov.au/fwo/IDQ60801/IDQ60801.94398.json